sensor_id;sensor_type;location;lat;lon;timestamp;temperature;humidity
74946;HTU21D;63509;45.250;38.102;2023-08-24T00:00:42;20.54;57.43
74946;HTU21D;63509;45.250;38.102;2023-08-24T00:03:08;20.54;57.64
74946;HTU21D;63509;45.250;38.102;2023-08-24T00:05:37;20.54;57.65
74946;HTU21D;63509;45.250;38.102;2023-08-24T00:08:04;20.53;57.58
74946;HTU21D;63509;45.250;38.102;2023-08-24T00:10:31;20.53;57.57
74946;HTU21D;63509;45.250;38.102;2023-08-24T00:12:57;20.50;57.67
74946;HTU21D;63509;45.250;38.102;2023-08-24T00:15:24;20.51;57.67
74946;HTU21D;63509;45.250;38.102;2023-08-24T00:17:50;20.51;57.65
74946;HTU21D;63509;45.250;38.102;2023-08-24T00:20:16;20.51;57.66
74946;HTU21D;63509;45.250;38.102;2023-08-24T00:22:42;20.51;57.69
74946;HTU21D;63509;45.250;38.102;2023-08-24T00:25:09;20.51;57.70
74946;HTU21D;63509;45.250;38.102;2023-08-24T00:27:36;20.51;57.69
74946;HTU21D;63509;45.250;38.102;2023-08-24T00:30:03;20.53;57.66
74946;HTU21D;63509;45.250;38.102;2023-08-24T00:32:30;20.51;57.72
74946;HTU21D;63509;45.250;38.102;2023-08-24T00:34:59;20.50;57.74
74946;HTU21D;63509;45.250;38.102;2023-08-24T00:37:27;20.50;57.77
74946;HTU21D;63509;45.250;38.102;2023-08-24T00:39:55;20.47;57.71
74946;HTU21D;63509;45.250;38.102;2023-08-24T00:42:21;20.44;57.76
74946;HTU21D;63509;45.250;38.102;2023-08-24T00:44:49;20.44;57.84
74946;HTU21D;63509;45.250;38.102;2023-08-24T00:47:16;20.42;57.87
74946;HTU21D;63509;45.250;38.102;2023-08-24T00:49:43;20.42;58.00
74946;HTU21D;63509;45.250;38.102;2023-08-24T00:52:10;20.43;58.07
74946;HTU21D;63509;45.250;38.102;2023-08-24T00:54:37;20.49;58.03
74946;HTU21D;63509;45.250;38.102;2023-08-24T00:57:05;20.49;58.06
74946;HTU21D;63509;45.250;38.102;2023-08-24T00:59:33;20.50;58.09
74946;HTU21D;63509;45.250;38.102;2023-08-24T01:02:00;20.54;58.08
74946;HTU21D;63509;45.250;38.102;2023-08-24T01:04:26;20.53;58.06
74946;HTU21D;63509;45.250;38.102;2023-08-24T01:06:52;20.54;58.12
74946;HTU21D;63509;45.250;38.102;2023-08-24T01:09:19;20.54;58.11
74946;HTU21D;63509;45.250;38.102;2023-08-24T01:14:34;20.50;57.87
74946;HTU21D;63509;45.250;38.102;2023-08-24T01:17:04;20.49;58.09
74946;HTU21D;63509;45.250;38.102;2023-08-24T01:19:41;20.50;57.94
74946;HTU21D;63509;45.250;38.102;2023-08-24T01:24:54;20.53;58.03
74946;HTU21D;63509;45.250;38.102;2023-08-24T01:27:24;20.54;58.30
74946;HTU21D;63509;45.250;38.102;2023-08-24T01:29:52;20.55;58.30
74946;HTU21D;63509;45.250;38.102;2023-08-24T01:32:24;20.54;58.39
74946;HTU21D;63509;45.250;38.102;2023-08-24T01:34:50;20.55;58.43
74946;HTU21D;63509;45.250;38.102;2023-08-24T01:37:17;20.55;58.38
74946;HTU21D;63509;45.250;38.102;2023-08-24T01:40:09;20.53;58.20
74946;HTU21D;63509;45.250;38.102;2023-08-24T01:42:58;20.53;58.03
74946;HTU21D;63509;45.250;38.102;2023-08-24T01:45:27;20.49;58.42
74946;HTU21D;63509;45.250;38.102;2023-08-24T01:47:55;20.49;58.47
74946;HTU21D;63509;45.250;38.102;2023-08-24T01:50:22;20.49;58.48
74946;HTU21D;63509;45.250;38.102;2023-08-24T01:52:49;20.49;58.55
74946;HTU21D;63509;45.250;38.102;2023-08-24T01:55:19;20.51;58.61
74946;HTU21D;63509;45.250;38.102;2023-08-24T01:57:46;20.50;58.64
74946;HTU21D;63509;45.250;38.102;2023-08-24T02:00:12;20.51;58.65
74946;HTU21D;63509;45.250;38.102;2023-08-24T02:02:45;20.50;58.69
74946;HTU21D;63509;45.250;38.102;2023-08-24T02:05:12;20.54;58.73
74946;HTU21D;63509;45.250;38.102;2023-08-24T02:07:39;20.56;58.77
74946;HTU21D;63509;45.250;38.102;2023-08-24T02:10:05;20.58;58.76
74946;HTU21D;63509;45.250;38.102;2023-08-24T02:12:31;20.60;58.77
74946;HTU21D;63509;45.250;38.102;2023-08-24T02:14:57;20.58;58.82
74946;HTU21D;63509;45.250;38.102;2023-08-24T02:17:23;20.55;58.90
74946;HTU21D;63509;45.250;38.102;2023-08-24T02:19:49;20.55;58.93
74946;HTU21D;63509;45.250;38.102;2023-08-24T02:22:16;20.56;58.93
74946;HTU21D;63509;45.250;38.102;2023-08-24T02:24:42;20.59;58.91
74946;HTU21D;63509;45.250;38.102;2023-08-24T02:27:09;20.60;58.94
74946;HTU21D;63509;45.250;38.102;2023-08-24T02:29:35;20.63;58.98
74946;HTU21D;63509;45.250;38.102;2023-08-24T02:32:02;20.65;58.94
74946;HTU21D;63509;45.250;38.102;2023-08-24T02:34:28;20.63;58.95
74946;HTU21D;63509;45.250;38.102;2023-08-24T02:36:57;20.62;58.98
74946;HTU21D;63509;45.250;38.102;2023-08-24T02:39:23;20.63;59.04
74946;HTU21D;63509;45.250;38.102;2023-08-24T02:41:49;20.64;59.01
74946;HTU21D;63509;45.250;38.102;2023-08-24T02:44:15;20.64;59.08
74946;HTU21D;63509;45.250;38.102;2023-08-24T02:46:44;20.66;58.96
74946;HTU21D;63509;45.250;38.102;2023-08-24T02:49:10;20.70;59.13
74946;HTU21D;63509;45.250;38.102;2023-08-24T02:51:36;20.71;59.16
74946;HTU21D;63509;45.250;38.102;2023-08-24T02:54:03;20.72;59.19
74946;HTU21D;63509;45.250;38.102;2023-08-24T02:56:29;20.73;59.22
74946;HTU21D;63509;45.250;38.102;2023-08-24T02:58:56;20.75;59.19
74946;HTU21D;63509;45.250;38.102;2023-08-24T03:01:22;20.78;59.19
74946;HTU21D;63509;45.250;38.102;2023-08-24T03:03:48;20.81;59.20
74946;HTU21D;63509;45.250;38.102;2023-08-24T03:06:14;20.84;59.19
74946;HTU21D;63509;45.250;38.102;2023-08-24T03:08:40;20.86;59.25
74946;HTU21D;63509;45.250;38.102;2023-08-24T03:11:06;20.88;59.22
74946;HTU21D;63509;45.250;38.102;2023-08-24T03:13:36;20.90;59.09
74946;HTU21D;63509;45.250;38.102;2023-08-24T03:16:07;20.91;59.24
74946;HTU21D;63509;45.250;38.102;2023-08-24T03:18:34;20.94;59.27
74946;HTU21D;63509;45.250;38.102;2023-08-24T03:21:02;20.95;59.21
74946;HTU21D;63509;45.250;38.102;2023-08-24T03:23:28;20.93;59.24
74946;HTU21D;63509;45.250;38.102;2023-08-24T03:25:55;20.95;59.28
74946;HTU21D;63509;45.250;38.102;2023-08-24T03:28:21;20.96;59.25
74946;HTU21D;63509;45.250;38.102;2023-08-24T03:30:49;20.95;59.25
74946;HTU21D;63509;45.250;38.102;2023-08-24T03:33:16;20.95;59.29
74946;HTU21D;63509;45.250;38.102;2023-08-24T03:35:42;20.98;59.35
74946;HTU21D;63509;45.250;38.102;2023-08-24T03:38:08;20.98;59.33
74946;HTU21D;63509;45.250;38.102;2023-08-24T03:40:34;20.94;59.30
74946;HTU21D;63509;45.250;38.102;2023-08-24T03:43:04;20.88;59.19
74946;HTU21D;63509;45.250;38.102;2023-08-24T03:45:30;20.77;59.38
74946;HTU21D;63509;45.250;38.102;2023-08-24T03:47:56;20.71;59.39
74946;HTU21D;63509;45.250;38.102;2023-08-24T03:50:22;20.62;59.54
74946;HTU21D;63509;45.250;38.102;2023-08-24T03:52:50;20.63;59.63
74946;HTU21D;63509;45.250;38.102;2023-08-24T03:55:16;20.65;59.67
74946;HTU21D;63509;45.250;38.102;2023-08-24T03:57:43;20.68;59.64
74946;HTU21D;63509;45.250;38.102;2023-08-24T04:00:09;20.70;59.66
74946;HTU21D;63509;45.250;38.102;2023-08-24T04:02:43;20.71;59.49
74946;HTU21D;63509;45.250;38.102;2023-08-24T04:05:16;20.69;59.57
74946;HTU21D;63509;45.250;38.102;2023-08-24T04:07:42;20.65;59.62
74946;HTU21D;63509;45.250;38.102;2023-08-24T04:10:09;20.69;59.67
74946;HTU21D;63509;45.250;38.102;2023-08-24T04:12:35;20.68;59.70
74946;HTU21D;63509;45.250;38.102;2023-08-24T04:15:02;20.70;59.76
74946;HTU21D;63509;45.250;38.102;2023-08-24T04:17:28;20.74;59.80
74946;HTU21D;63509;45.250;38.102;2023-08-24T04:19:54;20.78;59.80
74946;HTU21D;63509;45.250;38.102;2023-08-24T04:22:20;20.85;59.83
74946;HTU21D;63509;45.250;38.102;2023-08-24T04:24:46;20.93;59.84
74946;HTU21D;63509;45.250;38.102;2023-08-24T04:27:12;21.01;59.81
74946;HTU21D;63509;45.250;38.102;2023-08-24T04:29:38;21.10;59.83
74946;HTU21D;63509;45.250;38.102;2023-08-24T04:32:05;21.20;59.81
74946;HTU21D;63509;45.250;38.102;2023-08-24T04:34:31;21.31;59.72
74946;HTU21D;63509;45.250;38.102;2023-08-24T04:36:58;21.44;59.64
74946;HTU21D;63509;45.250;38.102;2023-08-24T04:39:24;21.57;59.61
74946;HTU21D;63509;45.250;38.102;2023-08-24T04:41:50;21.73;59.62
74946;HTU21D;63509;45.250;38.102;2023-08-24T04:44:16;21.91;59.57
74946;HTU21D;63509;45.250;38.102;2023-08-24T04:46:42;22.08;59.44
74946;HTU21D;63509;45.250;38.102;2023-08-24T04:49:08;22.28;59.34
74946;HTU21D;63509;45.250;38.102;2023-08-24T04:51:35;22.47;59.23
74946;HTU21D;63509;45.250;38.102;2023-08-24T04:54:01;22.67;59.02
74946;HTU21D;63509;45.250;38.102;2023-08-24T04:56:27;22.86;58.79
74946;HTU21D;63509;45.250;38.102;2023-08-24T04:58:57;23.03;58.52
74946;HTU21D;63509;45.250;38.102;2023-08-24T05:01:23;23.16;58.45
74946;HTU21D;63509;45.250;38.102;2023-08-24T05:03:53;23.34;58.25
74946;HTU21D;63509;45.250;38.102;2023-08-24T05:06:20;23.52;58.04
74946;HTU21D;63509;45.250;38.102;2023-08-24T05:08:46;23.71;57.95
74946;HTU21D;63509;45.250;38.102;2023-08-24T05:11:13;23.92;57.74
74946;HTU21D;63509;45.250;38.102;2023-08-24T05:13:42;24.16;57.45
74946;HTU21D;63509;45.250;38.102;2023-08-24T05:16:09;24.38;57.17
74946;HTU21D;63509;45.250;38.102;2023-08-24T05:18:36;24.57;57.10
74946;HTU21D;63509;45.250;38.102;2023-08-24T05:21:03;24.82;56.86
74946;HTU21D;63509;45.250;38.102;2023-08-24T05:23:30;25.03;56.54
74946;HTU21D;63509;45.250;38.102;2023-08-24T05:26:00;25.21;56.19
74946;HTU21D;63509;45.250;38.102;2023-08-24T05:28:28;25.31;55.87
74946;HTU21D;63509;45.250;38.102;2023-08-24T05:30:54;25.38;55.56
74946;HTU21D;63509;45.250;38.102;2023-08-24T05:33:21;25.45;55.38
74946;HTU21D;63509;45.250;38.102;2023-08-24T05:35:48;25.52;55.10
74946;HTU21D;63509;45.250;38.102;2023-08-24T05:38:15;25.54;54.91
74946;HTU21D;63509;45.250;38.102;2023-08-24T05:40:42;25.63;54.83
74946;HTU21D;63509;45.250;38.102;2023-08-24T05:43:09;25.71;54.62
74946;HTU21D;63509;45.250;38.102;2023-08-24T05:45:36;25.83;54.32
74946;HTU21D;63509;45.250;38.102;2023-08-24T05:48:02;25.94;54.10
74946;HTU21D;63509;45.250;38.102;2023-08-24T05:50:28;26.09;54.09
74946;HTU21D;63509;45.250;38.102;2023-08-24T05:52:54;26.26;53.68
74946;HTU21D;63509;45.250;38.102;2023-08-24T05:55:21;26.42;53.23
74946;HTU21D;63509;45.250;38.102;2023-08-24T05:57:47;26.50;52.88
74946;HTU21D;63509;45.250;38.102;2023-08-24T06:00:13;26.56;52.72
74946;HTU21D;63509;45.250;38.102;2023-08-24T06:02:41;26.67;52.46
74946;HTU21D;63509;45.250;38.102;2023-08-24T06:05:07;26.80;52.32
74946;HTU21D;63509;45.250;38.102;2023-08-24T06:07:35;26.97;51.88
74946;HTU21D;63509;45.250;38.102;2023-08-24T06:10:02;27.16;51.62
74946;HTU21D;63509;45.250;38.102;2023-08-24T06:12:28;27.32;51.31
74946;HTU21D;63509;45.250;38.102;2023-08-24T06:14:54;27.51;50.92
74946;HTU21D;63509;45.250;38.102;2023-08-24T06:17:20;27.70;50.51
74946;HTU21D;63509;45.250;38.102;2023-08-24T06:19:46;27.84;49.93
74946;HTU21D;63509;45.250;38.102;2023-08-24T06:22:12;27.99;49.62
74946;HTU21D;63509;45.250;38.102;2023-08-24T06:24:38;28.12;49.16
74946;HTU21D;63509;45.250;38.102;2023-08-24T06:27:04;28.20;48.68
74946;HTU21D;63509;45.250;38.102;2023-08-24T06:29:30;28.31;48.31
74946;HTU21D;63509;45.250;38.102;2023-08-24T06:31:56;28.41;47.99
74946;HTU21D;63509;45.250;38.102;2023-08-24T06:34:22;28.52;47.63
74946;HTU21D;63509;45.250;38.102;2023-08-24T06:36:50;28.56;47.34
74946;HTU21D;63509;45.250;38.102;2023-08-24T06:39:16;28.61;47.05
74946;HTU21D;63509;45.250;38.102;2023-08-24T06:41:42;28.68;46.70
74946;HTU21D;63509;45.250;38.102;2023-08-24T06:44:08;28.82;46.60
74946;HTU21D;63509;45.250;38.102;2023-08-24T06:46:34;29.00;46.28
74946;HTU21D;63509;45.250;38.102;2023-08-24T06:49:00;29.22;46.11
74946;HTU21D;63509;45.250;38.102;2023-08-24T06:51:27;29.42;45.56
74946;HTU21D;63509;45.250;38.102;2023-08-24T06:53:56;29.57;45.30
74946;HTU21D;63509;45.250;38.102;2023-08-24T06:56:22;29.74;44.84
74946;HTU21D;63509;45.250;38.102;2023-08-24T06:58:48;29.89;44.46
74946;HTU21D;63509;45.250;38.102;2023-08-24T07:01:14;30.01;44.28
74946;HTU21D;63509;45.250;38.102;2023-08-24T07:03:41;30.13;43.86
74946;HTU21D;63509;45.250;38.102;2023-08-24T07:06:07;30.19;43.73
74946;HTU21D;63509;45.250;38.102;2023-08-24T07:08:34;30.38;43.42
74946;HTU21D;63509;45.250;38.102;2023-08-24T07:11:01;30.59;43.10
74946;HTU21D;63509;45.250;38.102;2023-08-24T07:13:28;30.80;42.79
74946;HTU21D;63509;45.250;38.102;2023-08-24T07:15:54;31.02;42.45
74946;HTU21D;63509;45.250;38.102;2023-08-24T07:18:21;31.27;42.16
74946;HTU21D;63509;45.250;38.102;2023-08-24T07:20:47;31.52;41.72
74946;HTU21D;63509;45.250;38.102;2023-08-24T07:23:13;31.73;41.23
74946;HTU21D;63509;45.250;38.102;2023-08-24T07:25:39;31.92;40.74
74946;HTU21D;63509;45.250;38.102;2023-08-24T07:28:06;31.98;40.23
74946;HTU21D;63509;45.250;38.102;2023-08-24T07:30:35;31.96;40.26
74946;HTU21D;63509;45.250;38.102;2023-08-24T07:33:01;31.92;41.45
74946;HTU21D;63509;45.250;38.102;2023-08-24T07:35:29;31.93;40.58
74946;HTU21D;63509;45.250;38.102;2023-08-24T07:37:56;32.03;40.27
74946;HTU21D;63509;45.250;38.102;2023-08-24T07:40:22;32.15;39.87
74946;HTU21D;63509;45.250;38.102;2023-08-24T07:42:51;32.33;39.80
74946;HTU21D;63509;45.250;38.102;2023-08-24T07:45:19;32.47;39.27
74946;HTU21D;63509;45.250;38.102;2023-08-24T07:47:45;32.59;39.04
74946;HTU21D;63509;45.250;38.102;2023-08-24T07:50:11;32.81;38.82
74946;HTU21D;63509;45.250;38.102;2023-08-24T07:52:41;33.05;38.76
74946;HTU21D;63509;45.250;38.102;2023-08-24T07:55:07;33.21;38.11
74946;HTU21D;63509;45.250;38.102;2023-08-24T07:57:35;33.27;38.01
74946;HTU21D;63509;45.250;38.102;2023-08-24T08:00:01;33.36;37.66
74946;HTU21D;63509;45.250;38.102;2023-08-24T08:02:38;33.50;37.43
74946;HTU21D;63509;45.250;38.102;2023-08-24T08:05:04;33.55;36.98
74946;HTU21D;63509;45.250;38.102;2023-08-24T08:07:32;33.53;36.92
74946;HTU21D;63509;45.250;38.102;2023-08-24T08:09:59;33.56;36.81
74946;HTU21D;63509;45.250;38.102;2023-08-24T08:12:25;33.68;36.50
74946;HTU21D;63509;45.250;38.102;2023-08-24T08:14:51;33.83;36.15
74946;HTU21D;63509;45.250;38.102;2023-08-24T08:17:17;33.86;35.91
74946;HTU21D;63509;45.250;38.102;2023-08-24T08:19:43;33.83;35.60
74946;HTU21D;63509;45.250;38.102;2023-08-24T08:22:09;33.75;35.47
74946;HTU21D;63509;45.250;38.102;2023-08-24T08:24:35;33.77;35.37
74946;HTU21D;63509;45.250;38.102;2023-08-24T08:27:01;33.86;35.02
74946;HTU21D;63509;45.250;38.102;2023-08-24T08:29:28;33.83;34.72
74946;HTU21D;63509;45.250;38.102;2023-08-24T08:31:54;33.67;34.75
74946;HTU21D;63509;45.250;38.102;2023-08-24T08:34:20;33.60;34.74
74946;HTU21D;63509;45.250;38.102;2023-08-24T08:36:46;33.56;34.47
74946;HTU21D;63509;45.250;38.102;2023-08-24T08:39:12;33.45;34.58
74946;HTU21D;63509;45.250;38.102;2023-08-24T08:41:42;33.55;34.70
74946;HTU21D;63509;45.250;38.102;2023-08-24T08:44:12;33.70;34.40
74946;HTU21D;63509;45.250;38.102;2023-08-24T08:46:40;33.71;33.94
74946;HTU21D;63509;45.250;38.102;2023-08-24T08:49:07;33.64;33.65
74946;HTU21D;63509;45.250;38.102;2023-08-24T08:51:36;33.66;33.70
74946;HTU21D;63509;45.250;38.102;2023-08-24T08:54:03;33.60;33.31
74946;HTU21D;63509;45.250;38.102;2023-08-24T08:56:32;33.48;33.18
74946;HTU21D;63509;45.250;38.102;2023-08-24T08:58:59;33.37;33.10
74946;HTU21D;63509;45.250;38.102;2023-08-24T09:01:27;33.43;33.15
74946;HTU21D;63509;45.250;38.102;2023-08-24T09:03:54;33.64;33.05
74946;HTU21D;63509;45.250;38.102;2023-08-24T09:06:20;33.85;32.56
74946;HTU21D;63509;45.250;38.102;2023-08-24T09:08:48;34.00;32.22
74946;HTU21D;63509;45.250;38.102;2023-08-24T09:11:15;34.16;32.00
74946;HTU21D;63509;45.250;38.102;2023-08-24T09:13:43;34.18;31.80
74946;HTU21D;63509;45.250;38.102;2023-08-24T09:16:09;34.22;31.67
74946;HTU21D;63509;45.250;38.102;2023-08-24T09:18:43;34.23;31.78
74946;HTU21D;63509;45.250;38.102;2023-08-24T09:21:16;34.35;31.96
74946;HTU21D;63509;45.250;38.102;2023-08-24T09:24:00;34.55;31.84
74946;HTU21D;63509;45.250;38.102;2023-08-24T09:26:30;34.65;31.39
74946;HTU21D;63509;45.250;38.102;2023-08-24T09:28:57;34.64;30.99
74946;HTU21D;63509;45.250;38.102;2023-08-24T09:31:28;34.75;30.88
74946;HTU21D;63509;45.250;38.102;2023-08-24T09:34:01;34.82;30.80
74946;HTU21D;63509;45.250;38.102;2023-08-24T09:36:31;34.93;30.79
74946;HTU21D;63509;45.250;38.102;2023-08-24T09:38:59;35.04;30.60
74946;HTU21D;63509;45.250;38.102;2023-08-24T09:41:40;35.24;30.76
74946;HTU21D;63509;45.250;38.102;2023-08-24T09:44:06;35.34;30.05
74946;HTU21D;63509;45.250;38.102;2023-08-24T09:46:34;35.16;31.30
74946;HTU21D;63509;45.250;38.102;2023-08-24T09:49:00;35.07;30.48
74946;HTU21D;63509;45.250;38.102;2023-08-24T09:51:30;35.14;30.02
74946;HTU21D;63509;45.250;38.102;2023-08-24T09:53:57;35.18;29.85
74946;HTU21D;63509;45.250;38.102;2023-08-24T09:56:28;35.03;29.70
74946;HTU21D;63509;45.250;38.102;2023-08-24T09:58:57;34.77;29.79
74946;HTU21D;63509;45.250;38.102;2023-08-24T10:01:26;34.73;29.64
74946;HTU21D;63509;45.250;38.102;2023-08-24T10:03:53;34.85;29.47
74946;HTU21D;63509;45.250;38.102;2023-08-24T10:06:27;34.88;29.45
74946;HTU21D;63509;45.250;38.102;2023-08-24T10:09:00;34.86;29.38
74946;HTU21D;63509;45.250;38.102;2023-08-24T10:11:34;34.85;29.24
74946;HTU21D;63509;45.250;38.102;2023-08-24T10:14:44;34.81;29.39
74946;HTU21D;63509;45.250;38.102;2023-08-24T10:17:13;34.69;28.99
74946;HTU21D;63509;45.250;38.102;2023-08-24T10:19:41;34.60;28.92
74946;HTU21D;63509;45.250;38.102;2023-08-24T10:22:08;34.45;28.90
74946;HTU21D;63509;45.250;38.102;2023-08-24T10:24:35;34.42;28.92
74946;HTU21D;63509;45.250;38.102;2023-08-24T10:27:02;34.46;28.77
74946;HTU21D;63509;45.250;38.102;2023-08-24T10:29:29;34.34;28.65
74946;HTU21D;63509;45.250;38.102;2023-08-24T10:31:56;34.22;28.58
74946;HTU21D;63509;45.250;38.102;2023-08-24T10:34:23;34.15;28.68
74946;HTU21D;63509;45.250;38.102;2023-08-24T10:36:49;34.09;28.58
74946;HTU21D;63509;45.250;38.102;2023-08-24T10:39:17;34.10;28.54
74946;HTU21D;63509;45.250;38.102;2023-08-24T10:41:51;34.20;28.76
74946;HTU21D;63509;45.250;38.102;2023-08-24T10:44:37;34.36;28.84
74946;HTU21D;63509;45.250;38.102;2023-08-24T10:47:14;34.53;28.71
74946;HTU21D;63509;45.250;38.102;2023-08-24T10:49:42;34.67;28.32
74946;HTU21D;63509;45.250;38.102;2023-08-24T10:52:24;34.84;28.33
74946;HTU21D;63509;45.250;38.102;2023-08-24T10:54:54;34.85;28.03
74946;HTU21D;63509;45.250;38.102;2023-08-24T10:57:26;34.86;27.78
74946;HTU21D;63509;45.250;38.102;2023-08-24T11:00:08;34.83;27.77
74946;HTU21D;63509;45.250;38.102;2023-08-24T11:02:46;34.60;27.92
74946;HTU21D;63509;45.250;38.102;2023-08-24T11:05:20;34.53;27.85
74946;HTU21D;63509;45.250;38.102;2023-08-24T11:07:55;34.53;27.83
74946;HTU21D;63509;45.250;38.102;2023-08-24T11:10:23;34.63;27.58
74946;HTU21D;63509;45.250;38.102;2023-08-24T11:15:45;34.60;27.58
74946;HTU21D;63509;45.250;38.102;2023-08-24T11:18:22;34.60;27.25
74946;HTU21D;63509;45.250;38.102;2023-08-24T11:20:51;34.54;27.36
74946;HTU21D;63509;45.250;38.102;2023-08-24T11:23:18;34.45;27.14
74946;HTU21D;63509;45.250;38.102;2023-08-24T11:25:46;34.32;27.00
74946;HTU21D;63509;45.250;38.102;2023-08-24T11:28:17;34.29;27.27
74946;HTU21D;63509;45.250;38.102;2023-08-24T11:30:44;34.38;26.98
74946;HTU21D;63509;45.250;38.102;2023-08-24T11:33:11;34.47;26.94
74946;HTU21D;63509;45.250;38.102;2023-08-24T11:35:44;34.55;27.05
74946;HTU21D;63509;45.250;38.102;2023-08-24T11:38:10;34.38;26.85
74946;HTU21D;63509;45.250;38.102;2023-08-24T11:40:37;34.11;26.96
74946;HTU21D;63509;45.250;38.102;2023-08-24T11:43:03;34.04;27.10
74946;HTU21D;63509;45.250;38.102;2023-08-24T11:45:32;34.10;27.08
74946;HTU21D;63509;45.250;38.102;2023-08-24T11:48:03;34.01;27.04
74946;HTU21D;63509;45.250;38.102;2023-08-24T11:50:32;33.70;27.15
74946;HTU21D;63509;45.250;38.102;2023-08-24T11:52:59;33.41;27.33
74946;HTU21D;63509;45.250;38.102;2023-08-24T11:55:26;33.13;27.60
74946;HTU21D;63509;45.250;38.102;2023-08-24T11:57:53;33.03;27.68
74946;HTU21D;63509;45.250;38.102;2023-08-24T12:00:22;32.93;27.86
74946;HTU21D;63509;45.250;38.102;2023-08-24T12:02:49;32.78;27.71
74946;HTU21D;63509;45.250;38.102;2023-08-24T12:05:23;32.76;27.97
74946;HTU21D;63509;45.250;38.102;2023-08-24T12:07:50;32.83;27.80
74946;HTU21D;63509;45.250;38.102;2023-08-24T12:10:17;32.75;28.41
74946;HTU21D;63509;45.250;38.102;2023-08-24T12:12:43;32.72;28.18
74946;HTU21D;63509;45.250;38.102;2023-08-24T12:15:15;32.76;28.20
74946;HTU21D;63509;45.250;38.102;2023-08-24T12:17:43;32.75;27.92
74946;HTU21D;63509;45.250;38.102;2023-08-24T12:20:19;32.85;28.07
74946;HTU21D;63509;45.250;38.102;2023-08-24T12:22:53;32.87;28.10
74946;HTU21D;63509;45.250;38.102;2023-08-24T12:25:23;32.79;27.97
74946;HTU21D;63509;45.250;38.102;2023-08-24T12:27:53;32.71;28.03
74946;HTU21D;63509;45.250;38.102;2023-08-24T12:30:49;32.67;28.15
74946;HTU21D;63509;45.250;38.102;2023-08-24T12:33:25;32.67;28.24
74946;HTU21D;63509;45.250;38.102;2023-08-24T12:35:53;32.66;28.18
74946;HTU21D;63509;45.250;38.102;2023-08-24T12:38:19;32.58;28.63
74946;HTU21D;63509;45.250;38.102;2023-08-24T12:40:45;32.38;28.52
74946;HTU21D;63509;45.250;38.102;2023-08-24T12:43:11;32.26;28.64
74946;HTU21D;63509;45.250;38.102;2023-08-24T12:45:38;32.27;28.66
74946;HTU21D;63509;45.250;38.102;2023-08-24T12:48:05;32.19;28.63
74946;HTU21D;63509;45.250;38.102;2023-08-24T12:50:31;31.95;28.79
74946;HTU21D;63509;45.250;38.102;2023-08-24T12:52:57;31.72;28.91
74946;HTU21D;63509;45.250;38.102;2023-08-24T12:55:26;31.58;29.02
74946;HTU21D;63509;45.250;38.102;2023-08-24T12:57:52;31.55;29.05
74946;HTU21D;63509;45.250;38.102;2023-08-24T13:00:19;31.48;29.06
74946;HTU21D;63509;45.250;38.102;2023-08-24T13:02:45;31.46;29.13
74946;HTU21D;63509;45.250;38.102;2023-08-24T13:05:11;31.40;29.21
74946;HTU21D;63509;45.250;38.102;2023-08-24T13:07:38;31.29;29.36
74946;HTU21D;63509;45.250;38.102;2023-08-24T13:10:04;31.22;29.43
74946;HTU21D;63509;45.250;38.102;2023-08-24T13:12:32;31.10;29.74
74946;HTU21D;63509;45.250;38.102;2023-08-24T13:14:58;30.96;29.90
74946;HTU21D;63509;45.250;38.102;2023-08-24T13:17:27;30.81;30.09
74946;HTU21D;63509;45.250;38.102;2023-08-24T13:19:53;30.67;30.31
74946;HTU21D;63509;45.250;38.102;2023-08-24T13:22:19;30.56;30.55
74946;HTU21D;63509;45.250;38.102;2023-08-24T13:24:45;30.45;30.77
74946;HTU21D;63509;45.250;38.102;2023-08-24T13:27:11;30.30;31.06
74946;HTU21D;63509;45.250;38.102;2023-08-24T13:29:38;30.18;31.32
74946;HTU21D;63509;45.250;38.102;2023-08-24T13:32:04;30.07;31.70
74946;HTU21D;63509;45.250;38.102;2023-08-24T13:34:31;29.97;31.96
74946;HTU21D;63509;45.250;38.102;2023-08-24T13:36:59;29.90;32.04
74946;HTU21D;63509;45.250;38.102;2023-08-24T13:39:26;29.83;32.35
74946;HTU21D;63509;45.250;38.102;2023-08-24T13:41:56;29.78;32.48
74946;HTU21D;63509;45.250;38.102;2023-08-24T13:44:22;29.68;32.76
74946;HTU21D;63509;45.250;38.102;2023-08-24T13:46:48;29.60;32.89
74946;HTU21D;63509;45.250;38.102;2023-08-24T13:49:14;29.51;33.05
74946;HTU21D;63509;45.250;38.102;2023-08-24T13:51:40;29.43;33.18
74946;HTU21D;63509;45.250;38.102;2023-08-24T13:54:17;29.38;33.18
74946;HTU21D;63509;45.250;38.102;2023-08-24T13:56:44;29.30;33.47
74946;HTU21D;63509;45.250;38.102;2023-08-24T13:59:12;29.21;33.66
74946;HTU21D;63509;45.250;38.102;2023-08-24T14:01:38;29.12;33.76
74946;HTU21D;63509;45.250;38.102;2023-08-24T14:04:04;29.05;33.96
74946;HTU21D;63509;45.250;38.102;2023-08-24T14:06:31;28.97;34.02
74946;HTU21D;63509;45.250;38.102;2023-08-24T14:09:00;28.90;34.14
74946;HTU21D;63509;45.250;38.102;2023-08-24T14:11:28;28.86;34.23
74946;HTU21D;63509;45.250;38.102;2023-08-24T14:13:54;28.78;34.33
74946;HTU21D;63509;45.250;38.102;2023-08-24T14:16:20;28.72;34.51
74946;HTU21D;63509;45.250;38.102;2023-08-24T14:18:47;28.64;34.59
74946;HTU21D;63509;45.250;38.102;2023-08-24T14:21:13;28.58;34.74
74946;HTU21D;63509;45.250;38.102;2023-08-24T14:23:40;28.52;34.81
74946;HTU21D;63509;45.250;38.102;2023-08-24T14:26:06;28.47;34.91
74946;HTU21D;63509;45.250;38.102;2023-08-24T14:28:55;28.43;34.80
74946;HTU21D;63509;45.250;38.102;2023-08-24T14:31:28;28.34;34.98
74946;HTU21D;63509;45.250;38.102;2023-08-24T14:33:55;28.28;35.15
74946;HTU21D;63509;45.250;38.102;2023-08-24T14:36:22;28.21;35.22
74946;HTU21D;63509;45.250;38.102;2023-08-24T14:38:49;28.16;35.37
74946;HTU21D;63509;45.250;38.102;2023-08-24T14:41:15;28.13;35.39
74946;HTU21D;63509;45.250;38.102;2023-08-24T14:43:42;28.09;35.42
74946;HTU21D;63509;45.250;38.102;2023-08-24T14:46:08;28.04;35.46
74946;HTU21D;63509;45.250;38.102;2023-08-24T14:48:35;27.98;35.51
74946;HTU21D;63509;45.250;38.102;2023-08-24T14:51:01;27.90;35.60
74946;HTU21D;63509;45.250;38.102;2023-08-24T14:53:28;27.86;35.65
74946;HTU21D;63509;45.250;38.102;2023-08-24T14:55:56;27.83;35.70
74946;HTU21D;63509;45.250;38.102;2023-08-24T14:58:23;27.79;35.75
74946;HTU21D;63509;45.250;38.102;2023-08-24T15:00:50;27.73;35.82
74946;HTU21D;63509;45.250;38.102;2023-08-24T15:03:17;27.67;35.87
74946;HTU21D;63509;45.250;38.102;2023-08-24T15:05:45;27.63;35.94
74946;HTU21D;63509;45.250;38.102;2023-08-24T15:08:13;27.57;36.04
74946;HTU21D;63509;45.250;38.102;2023-08-24T15:10:39;27.53;36.13
74946;HTU21D;63509;45.250;38.102;2023-08-24T15:13:07;27.49;36.20
74946;HTU21D;63509;45.250;38.102;2023-08-24T15:15:35;27.43;36.26